Time;durP1;ratioP1;P1;durP2;ratioP2;P2;SDS_P1;SDS_P2;PMS_P1;PMS_P2;Temp;Humidity;BMP_temperature;BMP_pressure;BME280_temperature;BME280_humidity;BME280_pressure;Samples;Min_cycle;Max_cycle;Signal;HPM_P1;HPM_P2
2023/05/28 00:00:20;;;;;;;;;11.00;9.00;;;;;14.45;74.61;99800.59;6280738;20;2766917;-60
2023/05/28 00:02:49;;;;;;;;;8.40;7.20;;;;;14.41;72.58;99807.22;6307745;20;2727380;-60
2023/05/28 00:05:16;;;;;;;;;7.00;7.00;;;;;14.55;72.15;99807.06;6313831;20;2739879;-60
2023/05/28 00:07:44;;;;;;;;;10.50;9.50;;;;;14.57;71.02;99802.41;6288069;20;2758611;-60
2023/05/28 00:10:11;;;;;;;;;9.00;6.00;;;;;14.65;70.44;99802.66;6283363;20;2743038;-60
2023/05/28 00:12:39;;;;;;;;;10.00;9.00;;;;;14.66;69.67;99798.97;6288339;20;2745086;-61
2023/05/28 00:15:10;;;;;;;;;8.86;8.00;;;;;14.45;70.37;99792.47;6326607;20;3454405;-61
2023/05/28 00:17:40;;;;;;;;;14.40;9.20;;;;;14.68;69.21;99788.91;6338835;20;2781587;-60
2023/05/28 00:20:07;;;;;;;;;8.00;7.00;;;;;14.56;68.90;99787.19;6284454;20;2732572;-61
2023/05/28 00:22:37;;;;;;;;;9.60;9.60;;;;;14.66;68.64;99790.88;6308196;20;2787798;-61
2023/05/28 00:25:07;;;;;;;;;9.60;7.00;;;;;14.73;68.08;99785.88;6305685;20;2746164;-61
2023/05/28 00:27:38;;;;;;;;;8.57;8.57;;;;;14.70;68.07;99786.97;6357548;20;1795786;-61
2023/05/28 00:30:09;;;;;;;;;7.80;7.80;;;;;14.54;69.03;99782.88;6352364;20;2471176;-62
2023/05/28 00:32:37;;;;;;;;;12.50;8.50;;;;;14.44;70.55;99785.38;6309940;20;2753408;-61
2023/05/28 00:35:07;;;;;;;;;10.50;8.00;;;;;14.52;69.94;99784.78;6285426;20;2747225;-61
2023/05/28 00:37:38;;;;;;;;;9.00;8.50;;;;;14.28;70.75;99778.44;6330192;20;1796184;-61
2023/05/28 00:40:07;;;;;;;;;13.50;9.50;;;;;14.19;71.54;99789.03;6310355;20;2783721;-61
2023/05/28 00:42:36;;;;;;;;;8.00;8.00;;;;;14.24;70.61;99776.94;6307767;20;2743084;-61
2023/05/28 00:45:04;;;;;;;;;9.00;9.00;;;;;14.30;70.72;99780.13;6321783;20;2617610;-61
2023/05/28 00:47:32;;;;;;;;;10.50;7.50;;;;;14.39;70.25;99774.06;6279025;20;2761871;-60
2023/05/28 00:50:00;;;;;;;;;11.00;7.50;;;;;14.30;70.55;99774.72;6284180;20;2757576;-61
2023/05/28 00:52:28;;;;;;;;;12.00;9.00;;;;;14.11;71.64;99768.00;6282773;20;2775317;-62
2023/05/28 00:54:55;;;;;;;;;7.00;7.00;;;;;14.22;70.68;99762.69;6281141;20;2734800;-61
2023/05/28 00:57:26;;;;;;;;;5.71;5.71;;;;;14.12;70.95;99764.34;6324817;20;3438800;-61
2023/05/28 01:00:04;;;;;;;;;8.50;8.50;;;;;13.98;71.02;99764.50;6309567;20;2734676;-61
2023/05/28 01:02:33;;;;;;;;;8.60;7.80;;;;;14.03;70.49;99763.22;6307171;20;2742016;-61
2023/05/28 01:05:00;;;;;;;;;8.50;6.00;;;;;14.25;70.45;99761.59;6320403;20;2736898;-61
2023/05/28 01:07:28;;;;;;;;;10.00;9.00;;;;;13.94;70.73;99757.63;6280403;20;2773303;-61
2023/05/28 01:09:58;;;;;;;;;8.80;7.80;;;;;14.16;70.64;99751.47;6306799;20;2744109;-61
2023/05/28 01:12:28;;;;;;;;;12.60;8.40;;;;;14.06;70.66;99751.34;6334875;20;2777394;-61
2023/05/28 01:14:56;;;;;;;;;12.00;8.00;;;;;14.13;70.89;99746.31;6282024;20;2764824;-62
2023/05/28 01:17:24;;;;;;;;;10.00;9.50;;;;;14.05;70.63;99744.19;6282783;20;2752397;-61
2023/05/28 01:19:52;;;;;;;;;10.00;9.00;;;;;14.05;70.53;99744.19;6280127;20;2763476;-61
2023/05/28 01:22:28;;;;;;;;;8.29;7.00;;;;;13.97;71.49;99742.06;6321217;20;3461823;-61
2023/05/28 01:24:56;;;;;;;;;8.00;8.00;;;;;13.84;71.55;99747.50;6309048;20;2746094;-61
2023/05/28 01:27:24;;;;;;;;;7.50;6.50;;;;;13.58;72.08;99740.47;6284015;20;2742345;-62
2023/05/28 01:29:53;;;;;;;;;9.20;9.20;;;;;13.67;72.58;99756.00;6300562;20;2737856;-61
2023/05/28 01:32:24;;;;;;;;;10.40;8.60;;;;;13.62;72.25;99739.28;6340756;20;2754643;-61
2023/05/28 01:34:53;;;;;;;;;7.60;6.60;;;;;13.69;71.82;99742.38;6311366;20;2732627;-61
2023/05/28 01:37:22;;;;;;;;;10.00;8.33;;;;;13.42;72.88;99746.13;6314650;20;2749240;-60
2023/05/28 01:39:51;;;;;;;;;6.50;6.50;;;;;13.70;71.81;99749.53;6317809;20;2738845;-61
2023/05/28 01:42:21;;;;;;;;;9.00;7.00;;;;;13.51;72.01;99737.38;6312024;20;2748241;-61
2023/05/28 01:44:50;;;;;;;;;10.00;8.50;;;;;13.46;73.13;99741.38;6315485;20;2750329;-61
2023/05/28 01:47:18;;;;;;;;;11.00;8.50;;;;;13.57;72.20;99727.97;6288508;20;2753433;-61
2023/05/28 01:49:47;;;;;;;;;9.20;7.00;;;;;13.59;72.25;99736.81;6309829;20;2755501;-61
2023/05/28 01:52:16;;;;;;;;;10.00;6.60;;;;;13.65;71.36;99730.97;6343740;20;2748194;-61
2023/05/28 01:54:47;;;;;;;;;7.14;7.00;;;;;13.45;73.41;99723.47;6361357;20;3458999;-61
2023/05/28 01:57:15;;;;;;;;;9.50;8.00;;;;;13.26;73.74;99724.78;6317633;20;2740995;-61
2023/05/28 01:59:42;;;;;;;;;10.50;8.50;;;;;13.34;74.78;99725.09;6288979;20;2756551;-61
2023/05/28 02:02:10;;;;;;;;;11.00;8.00;;;;;13.47;72.39;99721.53;6286675;20;2769184;-61
2023/05/28 02:04:37;;;;;;;;;8.00;6.00;;;;;13.44;72.60;99728.00;6289849;20;2738942;-61
2023/05/28 02:07:05;;;;;;;;;7.00;7.00;;;;;13.27;72.94;99726.53;6292139;20;2740882;-61
2023/05/28 02:09:32;;;;;;;;;11.00;10.00;;;;;13.31;72.74;99722.63;6286668;20;2790019;-61
2023/05/28 02:12:02;;;;;;;;;8.40;7.60;;;;;13.51;72.03;99728.44;6313109;20;2754510;-62
2023/05/28 02:14:30;;;;;;;;;11.00;7.00;;;;;13.42;72.96;99723.69;6318564;20;2754401;-61
2023/05/28 02:16:58;;;;;;;;;11.00;7.00;;;;;13.30;72.58;99715.53;6285684;20;2758612;-61
2023/05/28 02:19:25;;;;;;;;;7.00;7.00;;;;;13.27;72.37;99714.88;6286631;20;2742957;-61
2023/05/28 02:21:53;;;;;;;;;9.00;8.50;;;;;13.26;72.87;99719.41;6282059;20;2751490;-61
2023/05/28 02:24:22;;;;;;;;;6.50;6.50;;;;;13.11;73.13;99726.75;6317790;20;2742034;-62
2023/05/28 02:26:51;;;;;;;;;10.00;8.00;;;;;12.91;74.24;99732.69;6284338;20;2760776;-61
2023/05/28 02:29:18;;;;;;;;;4.00;4.00;;;;;13.07;74.07;99719.84;6286551;20;2750286;-61
2023/05/28 02:31:45;;;;;;;;;11.50;7.50;;;;;13.32;72.71;99720.78;6285057;20;2760664;-62
2023/05/28 02:34:13;;;;;;;;;6.50;5.00;;;;;13.25;72.49;99727.59;6285938;20;2742091;-61
2023/05/28 02:36:40;;;;;;;;;6.50;6.50;;;;;13.08;74.08;99720.69;6289787;20;2737286;-62
2023/05/28 02:39:10;;;;;;;;;8.00;7.00;;;;;13.24;72.30;99721.31;6308042;20;2742042;-61
2023/05/28 02:41:37;;;;;;;;;8.00;7.00;;;;;13.26;72.07;99724.78;6319447;20;2753424;-61
2023/05/28 02:44:08;;;;;;;;;8.00;6.71;;;;;13.25;72.16;99720.34;6330228;20;3449240;-61
2023/05/28 02:46:35;;;;;;;;;8.50;8.50;;;;;13.27;72.18;99722.97;6317959;20;2746181;-61
2023/05/28 02:49:03;;;;;;;;;9.00;8.00;;;;;13.27;72.25;99720.25;6285022;20;2744067;-61
2023/05/28 02:51:32;;;;;;;;;9.25;7.75;;;;;13.09;72.88;99717.03;6314263;20;2698261;-61
2023/05/28 02:53:59;;;;;;;;;8.00;6.00;;;;;13.10;73.39;99713.38;6315882;20;2742987;-61
2023/05/28 02:56:27;;;;;;;;;10.00;8.00;;;;;13.10;73.21;99710.66;6281176;20;2756638;-61
2023/05/28 02:58:57;;;;;;;;;8.71;7.00;;;;;13.15;72.96;99716.59;6327080;20;1800309;-61
2023/05/28 03:01:26;;;;;;;;;8.00;7.80;;;;;13.18;73.24;99710.97;6341703;20;2730594;-61
2023/05/28 03:03:54;;;;;;;;;10.00;6.00;;;;;13.16;73.64;99718.31;6316165;20;2755480;-61
2023/05/28 03:06:22;;;;;;;;;10.00;5.50;;;;;13.08;74.95;99718.84;6287725;20;2752422;-61
2023/05/28 03:08:49;;;;;;;;;8.00;7.00;;;;;13.15;73.12;99716.59;6286292;20;2748214;-61
2023/05/28 03:11:17;;;;;;;;;9.00;7.50;;;;;12.89;74.60;99716.59;6286913;20;2744112;-61
2023/05/28 03:13:45;;;;;;;;;9.00;8.00;;;;;13.01;73.61;99720.28;6290144;20;2738831;-61
2023/05/28 03:16:12;;;;;;;;;8.00;6.00;;;;;13.08;73.67;99721.53;6283481;20;2736816;-61
2023/05/28 03:18:42;;;;;;;;;7.00;7.00;;;;;13.18;73.44;99729.84;6308607;20;2748411;-61
2023/05/28 03:21:09;;;;;;;;;8.00;7.00;;;;;13.17;73.59;99728.13;6314912;20;2743023;-62
2023/05/28 03:23:36;;;;;;;;;10.50;7.00;;;;;13.16;73.39;99727.28;6282236;20;2769104;-61
2023/05/28 03:26:04;;;;;;;;;11.00;8.00;;;;;13.03;74.32;99725.53;6283442;20;2769179;-61
2023/05/28 03:28:31;;;;;;;;;6.50;6.50;;;;;13.22;73.17;99731.38;6288564;20;2735699;-61
2023/05/28 03:30:58;;;;;;;;;8.00;6.50;;;;;13.32;73.53;99732.47;6284720;20;2737788;-61
2023/05/28 03:33:27;;;;;;;;;10.20;7.20;;;;;13.36;73.18;99731.25;6310229;20;2769040;-61
2023/05/28 03:35:55;;;;;;;;;8.50;5.00;;;;;13.34;72.84;99732.34;6280563;20;2753382;-61
2023/05/28 03:38:22;;;;;;;;;8.50;5.00;;;;;13.28;73.59;99739.03;6282053;20;2748323;-61
2023/05/28 03:40:51;;;;;;;;;7.40;5.80;;;;;13.29;73.58;99734.50;6307951;20;2737907;-61
2023/05/28 03:43:19;;;;;;;;;10.50;6.00;;;;;13.47;72.75;99737.72;6314693;20;2753397;-61
2023/05/28 03:45:46;;;;;;;;;8.00;8.00;;;;;13.54;72.72;99733.59;6284780;20;2736739;-61
2023/05/28 03:48:14;;;;;;;;;7.00;7.00;;;;;13.61;72.09;99734.84;6285982;20;2738865;-61
2023/05/28 03:50:43;;;;;;;;;10.40;6.80;;;;;13.67;72.62;99728.16;6308180;20;2752407;-61
2023/05/28 03:53:12;;;;;;;;;10.20;6.20;;;;;13.69;71.95;99737.88;6339659;20;2760953;-61
2023/05/28 03:55:40;;;;;;;;;10.00;7.00;;;;;13.75;72.20;99742.81;6313327;20;2748321;-61
2023/05/28 03:58:08;;;;;;;;;7.00;6.00;;;;;13.82;72.18;99744.09;6288950;20;2733618;-61
2023/05/28 04:00:36;;;;;;;;;6.50;5.50;;;;;13.90;71.13;99735.41;6279415;20;2750682;-61
2023/05/28 04:03:03;;;;;;;;;12.00;8.00;;;;;13.91;71.55;99738.97;6283708;20;2760926;-61
2023/05/28 04:05:34;;;;;;;;;8.00;7.00;;;;;13.99;71.53;99739.25;6326774;20;3451318;-60
2023/05/28 04:08:03;;;;;;;;;8.20;6.80;;;;;14.11;71.12;99734.75;6336537;20;2742089;-60
2023/05/28 04:10:31;;;;;;;;;8.50;6.50;;;;;14.19;70.92;99730.53;6313564;20;2742987;-61
2023/05/28 04:13:00;;;;;;;;;10.60;7.40;;;;;14.26;70.70;99739.84;6309582;20;2765964;-62
2023/05/28 04:15:28;;;;;;;;;6.00;4.00;;;;;14.31;70.93;99738.66;6283952;20;2738878;-61
2023/05/28 04:17:58;;;;;;;;;9.00;6.00;;;;;14.46;70.56;99726.69;6325203;20;1797251;-61
2023/05/28 04:20:26;;;;;;;;;7.00;5.50;;;;;14.41;70.59;99734.28;6311519;20;2739879;-61
2023/05/28 04:22:55;;;;;;;;;8.20;6.20;;;;;14.50;72.14;99733.56;6308279;20;2747573;-61
2023/05/28 04:25:24;;;;;;;;;8.40;6.60;;;;;14.53;70.66;99736.06;6306438;20;2753456;-61
2023/05/28 04:27:53;;;;;;;;;7.40;6.60;;;;;14.65;70.09;99740.50;6306699;20;2742069;-62
2023/05/28 04:30:23;;;;;;;;;6.00;6.00;;;;;14.68;70.50;99748.38;6312473;20;2734856;-61
2023/05/28 04:32:54;;;;;;;;;9.00;7.00;;;;;14.82;70.12;99741.03;6288498;20;2621181;-61
2023/05/28 04:35:21;;;;;;;;;8.00;8.00;;;;;15.29;69.02;99731.00;6279974;20;2748202;-61
2023/05/28 04:37:50;;;;;;;;;8.50;8.50;;;;;15.56;67.32;99739.59;6281123;20;2739929;-61
2023/05/28 04:40:18;;;;;;;;;7.00;6.50;;;;;15.70;66.71;99730.38;6281860;20;2741950;-61
2023/05/28 04:42:47;;;;;;;;;7.00;6.00;;;;;15.52;67.67;99734.56;6285539;20;2734654;-61
2023/05/28 04:45:14;;;;;;;;;5.00;5.00;;;;;15.61;68.41;99738.34;6285228;20;2740024;-60
2023/05/28 04:47:42;;;;;;;;;9.50;7.00;;;;;15.57;68.10;99727.78;6282621;20;2753433;-60
2023/05/28 04:50:10;;;;;;;;;8.00;7.00;;;;;15.73;68.61;99729.25;6283968;20;2748612;-60
2023/05/28 04:52:37;;;;;;;;;9.50;7.50;;;;;15.80;68.64;99730.47;6283929;20;2749223;-61
2023/05/28 04:55:05;;;;;;;;;8.50;7.00;;;;;15.91;67.82;99733.16;6284606;20;2732697;-60
2023/05/28 04:57:33;;;;;;;;;10.50;6.00;;;;;16.11;67.89;99733.31;6281201;20;2763839;-60
2023/05/28 05:00:03;;;;;;;;;8.60;6.00;;;;;16.08;68.10;99739.84;6306061;20;2728569;-60
2023/05/28 05:02:32;;;;;;;;;10.20;7.00;;;;;16.32;67.54;99742.34;6340693;20;2749260;-60
2023/05/28 05:05:00;;;;;;;;;9.50;8.00;;;;;16.29;68.26;99748.03;6312561;20;2744145;-61
2023/05/28 05:07:29;;;;;;;;;7.20;7.20;;;;;16.67;66.52;99743.94;6307206;20;2741921;-61
2023/05/28 05:09:56;;;;;;;;;6.00;6.00;;;;;19.00;58.18;99758.13;6313780;20;2739969;-60
2023/05/28 05:12:24;;;;;;;;;7.00;7.00;;;;;17.38;64.63;99748.59;6281618;20;2739981;-60
2023/05/28 05:14:51;;;;;;;;;8.00;7.00;;;;;17.36;65.01;99742.47;6284589;20;2753612;-60
2023/05/28 05:17:20;;;;;;;;;9.60;6.00;;;;;17.56;64.18;99746.97;6308507;20;2745034;-61
2023/05/28 05:19:49;;;;;;;;;11.80;8.00;;;;;17.38;64.10;99745.91;6335280;20;2750310;-61
2023/05/28 05:22:19;;;;;;;;;8.00;8.00;;;;;17.58;63.55;99744.13;6337314;20;2728434;-61
2023/05/28 05:24:48;;;;;;;;;7.60;6.20;;;;;17.86;62.53;99745.25;6337082;20;2735724;-60
2023/05/28 05:27:16;;;;;;;;;9.00;6.00;;;;;18.10;62.24;99753.84;6316827;20;2764870;-60
2023/05/28 05:29:43;;;;;;;;;7.50;6.50;;;;;18.03;60.32;99747.25;6284768;20;2731602;-60
2023/05/28 05:32:12;;;;;;;;;8.40;6.60;;;;;18.26;59.04;99752.44;6306845;20;2740938;-61
2023/05/28 05:34:43;;;;;;;;;5.71;5.71;;;;;18.40;58.81;99755.59;6355965;20;3461743;-61
2023/05/28 05:37:11;;;;;;;;;5.00;4.00;;;;;18.12;59.83;99756.44;6316956;20;2751327;-59
2023/05/28 05:39:38;;;;;;;;;5.00;5.00;;;;;18.13;59.43;99755.44;6283442;20;2743021;-61
2023/05/28 05:42:06;;;;;;;;;9.00;6.00;;;;;18.34;59.56;99749.88;6286371;20;2745111;-61
2023/05/28 05:44:33;;;;;;;;;5.00;5.00;;;;;18.65;58.74;99754.16;6284826;20;2750294;-60
2023/05/28 05:47:02;;;;;;;;;7.40;5.60;;;;;18.67;58.85;99744.97;6307195;20;2744037;-61
2023/05/28 05:49:31;;;;;;;;;5.20;4.80;;;;;18.69;58.63;99749.28;6341078;20;2739911;-61
2023/05/28 05:52:00;;;;;;;;;7.00;7.00;;;;;18.92;58.06;99758.00;6339542;20;2737782;-61
2023/05/28 05:54:28;;;;;;;;;6.00;6.00;;;;;18.77;57.94;99746.75;6317996;20;2733118;-60
2023/05/28 05:56:56;;;;;;;;;8.50;7.00;;;;;19.07;57.62;99756.53;6287778;20;2732949;-61
2023/05/28 05:59:24;;;;;;;;;10.33;6.67;;;;;19.17;57.62;99758.38;6283100;20;2765966;-61
2023/05/28 06:01:51;;;;;;;;;6.00;6.00;;;;;19.31;56.69;99755.19;6317103;20;2738928;-61
2023/05/28 06:04:19;;;;;;;;;8.00;5.50;;;;;19.40;56.63;99748.81;6287831;20;2734746;-59
2023/05/28 06:06:46;;;;;;;;;8.00;6.00;;;;;19.32;55.80;99751.44;6285232;20;2748314;-60
2023/05/28 06:09:16;;;;;;;;;10.00;6.20;;;;;19.23;57.14;99750.47;6310510;20;2747151;-61
2023/05/28 06:11:44;;;;;;;;;7.00;4.00;;;;;19.75;57.07;99758.19;6314231;20;2746135;-61
2023/05/28 06:14:13;;;;;;;;;7.60;7.20;;;;;20.01;55.15;99762.88;6339075;20;2738823;-60
2023/05/28 06:16:42;;;;;;;;;10.60;6.60;;;;;19.79;54.73;99759.56;6339663;20;2761757;-60
2023/05/28 06:19:10;;;;;;;;;5.67;5.67;;;;;19.99;55.26;99759.47;6287508;20;2731533;-60
2023/05/28 06:21:39;;;;;;;;;6.00;6.00;;;;;20.04;54.34;99762.59;6343661;20;2739832;-60
2023/05/28 06:24:07;;;;;;;;;6.00;6.00;;;;;20.64;53.53;99765.59;6321315;20;2748238;-60
2023/05/28 06:26:35;;;;;;;;;9.00;5.33;;;;;20.50;50.41;99768.84;6317795;20;2745090;-60
2023/05/28 06:29:07;;;;;;;;;5.80;5.80;;;;;20.63;51.66;99769.34;6344900;20;2748373;-61
2023/05/28 06:31:36;;;;;;;;;7.00;6.00;;;;;20.19;52.69;99771.94;6344583;20;2733655;-61
2023/05/28 06:34:06;;;;;;;;;5.80;5.80;;;;;20.25;51.35;99770.47;6342721;20;2737860;-60
2023/05/28 06:36:35;;;;;;;;;7.67;6.00;;;;;21.12;51.05;99775.19;6288316;20;2731543;-61
2023/05/28 06:39:04;;;;;;;;;8.67;6.00;;;;;20.83;49.72;99779.06;6319692;20;2749263;-60
2023/05/28 06:41:32;;;;;;;;;11.00;7.33;;;;;20.96;49.92;99769.63;6314935;20;2751434;-59
2023/05/28 06:44:01;;;;;;;;;6.80;6.00;;;;;21.82;49.66;99774.22;6341894;20;2726334;-60
2023/05/28 06:46:30;;;;;;;;;7.00;7.00;;;;;21.45;48.15;99775.41;6316810;20;2737871;-60
2023/05/28 06:49:00;;;;;;;;;9.20;6.80;;;;;22.14;48.83;99782.56;6340773;20;2744060;-61
2023/05/28 06:51:29;;;;;;;;;7.00;6.60;;;;;22.07;48.79;99772.44;6309828;20;2744001;-60
2023/05/28 06:53:57;;;;;;;;;8.67;7.67;;;;;22.42;47.65;99774.09;6320710;20;2742414;-61
2023/05/28 06:56:26;;;;;;;;;8.80;6.20;;;;;22.25;47.15;99770.47;6341943;20;2746179;-60
2023/05/28 06:58:55;;;;;;;;;7.20;6.00;;;;;22.80;46.17;99777.19;6342350;20;2728464;-61
2023/05/28 07:01:24;;;;;;;;;8.00;6.00;;;;;22.78;45.83;99773.78;6341393;20;2731522;-60
2023/05/28 07:03:53;;;;;;;;;7.60;5.40;;;;;22.64;45.88;99771.69;6341215;20;2744063;-60
2023/05/28 07:06:22;;;;;;;;;7.20;6.00;;;;;22.89;45.11;99761.63;6313388;20;2744060;-60
2023/05/28 07:08:52;;;;;;;;;5.80;5.80;;;;;23.35;44.54;99770.13;6309305;20;2736830;-61
2023/05/28 07:11:21;;;;;;;;;5.60;5.60;;;;;22.87;44.55;99778.22;6342750;20;2744065;-61
2023/05/28 07:13:52;;;;;;;;;7.40;7.40;;;;;22.93;44.83;99772.06;6312708;20;2742058;-60
2023/05/28 07:16:21;;;;;;;;;7.00;7.00;;;;;23.41;44.45;99773.03;6287559;20;2743126;-61
2023/05/28 07:18:50;;;;;;;;;7.80;7.20;;;;;23.54;44.49;99777.09;6341525;20;2745092;-61
2023/05/28 07:21:18;;;;;;;;;10.00;9.00;;;;;23.14;44.76;99773.44;6285464;20;2752957;-62
2023/05/28 07:23:46;;;;;;;;;10.00;8.67;;;;;23.54;45.15;99777.09;6314985;20;2761861;-61
2023/05/28 07:26:15;;;;;;;;;7.60;7.00;;;;;23.45;45.83;99779.88;6341609;20;2735875;-61
2023/05/28 07:28:45;;;;;;;;;5.40;5.40;;;;;23.72;43.71;99766.78;6341484;20;2746355;-60
2023/05/28 07:31:15;;;;;;;;;8.83;7.00;;;;;23.74;43.80;99770.22;6334115;20;1790995;-61
2023/05/28 07:33:44;;;;;;;;;7.67;6.67;;;;;24.02;42.38;99778.84;6326612;20;2743017;-61
2023/05/28 07:36:13;;;;;;;;;8.00;7.80;;;;;23.77;43.21;99769.84;6343470;20;2741981;-60
2023/05/28 07:38:43;;;;;;;;;6.20;5.60;;;;;24.52;43.12;99779.44;6308834;20;2739959;-61
2023/05/28 07:41:12;;;;;;;;;9.60;7.00;;;;;23.62;43.15;99771.63;6310667;20;2764865;-61
2023/05/28 07:43:40;;;;;;;;;9.67;6.67;;;;;24.19;43.67;99776.84;6292546;20;2760761;-61
2023/05/28 07:46:08;;;;;;;;;8.67;6.67;;;;;24.02;43.51;99772.50;6308669;20;2742104;-61
2023/05/28 07:48:37;;;;;;;;;10.00;6.00;;;;;23.87;44.40;99775.97;6336988;20;2749407;-61
2023/05/28 07:51:05;;;;;;;;;9.33;6.67;;;;;23.96;43.73;99765.84;6284460;20;2744036;-62
2023/05/28 07:53:34;;;;;;;;;9.60;7.40;;;;;23.95;44.66;99766.88;6340201;20;2756605;-60
2023/05/28 07:56:02;;;;;;;;;9.00;9.00;;;;;24.40;43.74;99769.88;6291350;20;2756624;-61
2023/05/28 07:58:30;;;;;;;;;7.00;7.00;;;;;25.10;43.61;99764.16;6313134;20;2744159;-60
2023/05/28 08:00:58;;;;;;;;;6.33;6.33;;;;;24.81;43.29;99762.22;6314880;20;2741044;-61
2023/05/28 08:03:27;;;;;;;;;8.40;6.60;;;;;24.50;44.46;99770.50;6342292;20;2748208;-61
2023/05/28 08:05:56;;;;;;;;;10.00;7.33;;;;;25.18;42.54;99769.63;6290889;20;2754492;-62
2023/05/28 08:08:25;;;;;;;;;7.60;7.60;;;;;25.13;42.74;99769.28;6341767;20;2744224;-61
2023/05/28 08:10:53;;;;;;;;;7.00;5.33;;;;;25.43;42.60;99769.34;6286062;20;2735785;-61
2023/05/28 08:13:22;;;;;;;;;8.40;4.80;;;;;25.25;42.12;99764.25;6340269;20;2747186;-61
2023/05/28 08:15:51;;;;;;;;;9.00;8.00;;;;;25.40;43.14;99761.47;6287970;20;2736766;-61
2023/05/28 08:18:19;;;;;;;;;10.67;7.33;;;;;25.60;42.51;99759.88;6306997;20;2766994;-61
2023/05/28 08:20:47;;;;;;;;;1.00;0.00;;;;;25.33;42.59;99766.03;6314901;20;2425398;-62
2023/05/28 08:23:15;;;;;;;;;8.33;8.33;;;;;25.34;42.29;99762.25;6322021;20;2754669;-60
2023/05/28 08:25:45;;;;;;;;;8.40;8.40;;;;;25.55;41.86;99765.09;6341010;20;2739837;-61
2023/05/28 08:28:16;;;;;;;;;11.67;8.67;;;;;25.05;41.56;99749.28;6268252;20;2777473;-59
2023/05/28 08:30:44;;;;;;;;;8.00;8.00;;;;;24.87;42.11;99753.22;6312619;20;2731652;-61
2023/05/28 08:33:12;;;;;;;;;8.67;7.00;;;;;25.21;42.63;99745.56;6306885;20;2743591;-61
2023/05/28 08:35:40;;;;;;;;;9.00;7.33;;;;;25.38;41.85;99749.81;6299690;20;2746313;-61
2023/05/28 08:38:08;;;;;;;;;13.00;8.67;;;;;24.91;43.43;99742.72;6314853;20;2776408;-61
2023/05/28 08:40:41;;;;;;;;;8.40;8.40;;;;;25.38;41.77;99750.69;6341559;20;2737833;-60
2023/05/28 08:43:10;;;;;;;;;9.20;9.00;;;;;25.42;41.35;99748.41;6307367;20;2758699;-59
2023/05/28 08:45:38;;;;;;;;;9.67;9.00;;;;;25.23;41.41;99743.47;6278526;20;2763859;-60
2023/05/28 08:48:07;;;;;;;;;12.00;9.00;;;;;25.32;40.84;99751.44;6315666;20;3480587;-60
2023/05/28 08:50:42;;;;;;;;;9.67;7.00;;;;;25.97;40.15;99752.56;6314647;20;2760746;-60
2023/05/28 08:53:17;;;;;;;;;9.33;9.33;;;;;25.47;41.50;99750.59;6313898;20;2770123;-64
2023/05/28 08:55:46;;;;;;;;;10.33;9.00;;;;;25.43;40.58;99747.34;6308212;20;3493164;-62
2023/05/28 08:58:14;;;;;;;;;12.00;7.33;;;;;25.72;41.08;99742.88;6314206;20;2773220;-63
2023/05/28 09:00:42;;;;;;;;;13.33;11.67;;;;;24.83;41.79;99738.16;6310608;20;3516931;-61
2023/05/28 09:03:10;;;;;;;;;7.67;7.67;;;;;25.91;41.12;99741.47;6311520;20;2748243;-61
2023/05/28 09:05:39;;;;;;;;;9.67;9.67;;;;;25.80;42.54;99738.16;6320034;20;2771165;-63
2023/05/28 09:08:10;;;;;;;;;12.00;10.00;;;;;25.46;39.58;99741.50;6319629;20;2791983;-60
2023/05/28 09:10:40;;;;;;;;;11.33;9.67;;;;;25.54;41.88;99735.03;6310512;20;3509715;-61
2023/05/28 09:13:08;;;;;;;;;9.33;9.33;;;;;25.28;42.52;99735.53;6314896;20;3486764;-61
2023/05/28 09:15:37;;;;;;;;;10.67;7.33;;;;;25.24;41.34;99725.94;6320718;20;2767130;-61
2023/05/28 09:18:06;;;;;;;;;7.33;7.33;;;;;25.49;42.39;99729.25;6322273;20;2739975;-61
2023/05/28 09:20:34;;;;;;;;;8.67;8.33;;;;;25.86;40.34;99731.06;6312476;20;3472213;-62
2023/05/28 09:23:05;;;;;;;;;13.67;9.33;;;;;25.77;41.87;99732.16;6321146;20;2776424;-61
2023/05/28 09:25:38;;;;;;;;;7.33;7.33;;;;;25.46;41.03;99715.88;6322458;20;2737839;-61
2023/05/28 09:28:06;;;;;;;;;9.00;8.00;;;;;25.28;42.54;99717.13;6320375;20;2755481;-61
2023/05/28 09:30:35;;;;;;;;;9.67;9.67;;;;;25.69;41.25;99722.13;6322656;20;2767996;-62
2023/05/28 09:33:06;;;;;;;;;9.00;9.00;;;;;25.92;40.84;99722.03;6319068;20;2752366;-62
2023/05/28 09:35:36;;;;;;;;;9.60;8.60;;;;;25.69;39.55;99722.13;6337320;20;2755511;-63
2023/05/28 09:38:11;;;;;;;;;11.00;11.00;;;;;26.22;40.59;99722.78;6288634;20;2789895;-61
2023/05/28 09:40:43;;;;;;;;;9.00;9.00;;;;;25.87;40.28;99713.50;6297468;20;2750486;-62
2023/05/28 09:43:11;;;;;;;;;8.33;7.00;;;;;25.60;40.69;99718.63;6319664;20;2754554;-62
2023/05/28 09:45:39;;;;;;;;;8.67;8.67;;;;;24.88;41.14;99708.25;6299872;20;2744249;-62
2023/05/28 09:48:07;;;;;;;;;12.00;9.50;;;;;25.02;41.98;99711.22;6301388;20;2666088;-62
2023/05/28 09:50:36;;;;;;;;;9.33;9.33;;;;;25.80;41.28;99712.53;6314864;20;2765906;-62
2023/05/28 09:53:07;;;;;;;;;11.00;9.33;;;;;25.96;39.97;99712.34;6316819;20;2778513;-63
2023/05/28 09:55:37;;;;;;;;;10.33;9.33;;;;;26.32;38.90;99711.47;6312888;20;3504530;-64
2023/05/28 09:58:06;;;;;;;;;7.67;7.67;;;;;25.42;39.82;99704.44;6317797;20;2756631;-64
2023/05/28 10:00:56;;;;;;;;;10.67;8.00;;;;;25.68;39.70;99714.94;6317768;20;2756540;-62
2023/05/28 10:03:30;;;;;;;;;9.67;9.67;;;;;25.65;39.82;99708.97;6318454;20;3491967;-64
2023/05/28 10:06:08;;;;;;;;;12.33;11.67;;;;;26.19;39.29;99708.56;6318686;20;3515920;-62
2023/05/28 10:08:37;;;;;;;;;11.33;9.33;;;;;26.42;38.42;99711.16;6314000;20;3488979;-63
2023/05/28 10:11:13;;;;;;;;;11.00;11.00;;;;;26.26;38.25;99712.25;6314081;20;3512768;-61
2023/05/28 10:13:41;;;;;;;;;8.67;8.67;;;;;26.33;39.08;99702.16;6316746;20;2748274;-62
2023/05/28 10:16:10;;;;;;;;;10.67;10.00;;;;;26.15;39.38;99701.78;6323620;20;2787239;-63
2023/05/28 10:18:40;;;;;;;;;9.33;8.00;;;;;26.35;38.64;99702.81;6316284;20;2760806;-62
2023/05/28 10:21:12;;;;;;;;;9.80;8.00;;;;;25.81;39.78;99693.09;6342244;20;2755461;-62
2023/05/28 10:23:42;;;;;;;;;12.33;9.67;;;;;26.23;39.68;99698.88;6285709;20;2778405;-62
2023/05/28 10:26:11;;;;;;;;;8.00;6.67;;;;;26.10;38.26;99696.84;6314623;20;2750359;-61
2023/05/28 10:28:39;;;;;;;;;10.00;10.00;;;;;25.89;36.94;99692.16;6316586;20;3513213;-63
2023/05/28 10:31:10;;;;;;;;;10.67;8.00;;;;;25.81;37.52;99686.75;6317065;20;3487854;-62
2023/05/28 10:33:40;;;;;;;;;9.33;9.33;;;;;26.77;37.91;99690.09;6324480;20;2756642;-63
2023/05/28 10:36:14;;;;;;;;;11.00;9.33;;;;;26.36;38.28;99685.25;6314303;20;3488886;-63
2023/05/28 10:39:01;;;;;;;;;6.60;5.20;;;;;26.67;38.40;99684.94;6339005;20;2745079;-63
2023/05/28 10:41:33;;;;;;;;;8.67;8.33;;;;;26.67;37.41;99687.69;6285608;20;3471124;-64
2023/05/28 10:44:07;;;;;;;;;10.00;9.00;;;;;26.53;37.26;99685.00;6321967;20;2769110;-64
2023/05/28 10:46:40;;;;;;;;;9.00;9.00;;;;;26.69;37.59;99679.22;6325907;20;2744143;-64
2023/05/28 10:49:12;;;;;;;;;9.67;9.67;;;;;26.75;37.32;99677.56;6315876;20;2483715;-63
2023/05/28 10:52:00;;;;;;;;;13.67;13.67;;;;;26.65;38.63;99680.69;6315303;20;3522158;-64
2023/05/28 10:54:40;;;;;;;;;9.00;9.00;;;;;26.14;37.76;99678.88;6287826;20;2753530;-64
2023/05/28 10:57:13;;;;;;;;;8.67;8.67;;;;;25.84;36.89;99678.97;6302292;20;2749492;-63
2023/05/28 11:00:05;;;;;;;;;9.67;9.33;;;;;26.38;36.72;99674.88;6298012;20;3484678;-63
2023/05/28 11:02:34;;;;;;;;;12.33;11.00;;;;;26.56;36.70;99663.41;6303757;20;2794110;-63
2023/05/28 11:05:04;;;;;;;;;9.00;6.67;;;;;26.37;37.51;99675.09;6308679;20;2740932;-63
2023/05/28 11:07:39;;;;;;;;;10.00;9.00;;;;;25.88;37.24;99670.34;6313770;20;3488969;-60
2023/05/28 11:10:11;;;;;;;;;9.00;9.00;;;;;26.12;37.59;99661.72;6299043;20;3473316;-59
2023/05/28 11:12:41;;;;;;;;;10.33;7.33;;;;;26.63;36.43;99669.00;6305645;20;2767699;-61
2023/05/28 11:15:12;;;;;;;;;6.33;6.33;;;;;26.00;35.58;99666.03;6298753;20;2734807;-61
2023/05/28 11:17:43;;;;;;;;;6.00;6.00;;;;;26.00;36.55;99663.28;6308651;20;2460746;-61
2023/05/28 11:20:25;;;;;;;;;11.67;9.33;;;;;26.20;35.34;99655.25;6304272;20;2776487;-60
2023/05/28 11:22:55;;;;;;;;;4.20;3.40;;;;;26.16;36.40;99646.50;6334419;20;2741988;-61